Time;durP1;ratioP1;P1;durP2;ratioP2;P2;SDS_P1;SDS_P2;PMS_P1;PMS_P2;Temp;Humidity;BMP_temperature;BMP_pressure;BME280_temperature;BME280_humidity;BME280_pressure;Samples;Min_cycle;Max_cycle;Signal;HPM_P1;HPM_P2
2022/11/26 00:00:17;;;;;;;23.45;12.82;;;;;;;-1.36;78.79;93845.81;5074626;28;20024;-35
2022/11/26 00:02:43;;;;;;;25.50;12.73;;;;;;;-1.40;78.60;93856.06;5087056;28;20037;-35
2022/11/26 00:05:12;;;;;;;22.77;13.13;;;;;;;-1.58;78.06;93848.06;5082414;28;20027;-35
2022/11/26 00:07:38;;;;;;;21.38;12.57;;;;;;;-1.60;78.00;93840.41;5085937;28;20032;-35
2022/11/26 00:10:04;;;;;;;19.05;12.15;;;;;;;-1.48;77.34;93854.19;5062759;28;20013;-35
2022/11/26 00:12:33;;;;;;;20.60;13.75;;;;;;;-1.51;76.96;93836.88;5067673;28;20473;-34
2022/11/26 00:15:01;;;;;;;26.00;14.30;;;;;;;-1.40;76.40;93852.59;5089823;28;20039;-35
2022/11/26 00:17:26;;;;;;;27.88;14.20;;;;;;;-1.51;76.73;93855.84;5073356;28;20499;-35
2022/11/26 00:19:52;;;;;;;33.47;15.75;;;;;;;-1.43;77.05;93853.56;5092750;28;20039;-35
2022/11/26 00:22:25;;;;;;;28.52;14.00;;;;;;;-1.78;77.76;93828.97;5083538;28;20028;-34
2022/11/26 00:24:51;;;;;;;39.63;19.05;;;;;;;-1.99;78.97;93846.22;5071314;28;20024;-35
2022/11/26 00:27:17;;;;;;;34.40;16.55;;;;;;;-1.93;79.92;93839.72;5076459;28;20564;-35
2022/11/26 00:29:43;;;;;;;33.30;16.85;;;;;;;-1.84;79.58;93838.91;5067300;28;20024;-35
2022/11/26 00:32:20;;;;;;;33.20;15.98;;;;;;;-1.98;79.02;93826.06;5084596;28;20503;-35
2022/11/26 00:34:46;;;;;;;34.10;15.27;;;;;;;-2.11;79.66;93831.69;5092151;28;20102;-35
2022/11/26 00:37:25;;;;;;;25.38;13.82;;;;;;;-2.08;79.63;93833.44;5085384;28;20095;-35
2022/11/26 00:39:50;;;;;;;24.20;11.95;;;;;;;-1.99;78.77;93825.28;5068762;28;20039;-34
2022/11/26 00:42:17;;;;;;;18.55;8.90;;;;;;;-2.05;78.99;93834.50;5072542;28;20488;-34
2022/11/26 00:44:42;;;;;;;29.73;17.35;;;;;;;-1.94;77.44;93826.63;5083498;28;20020;-35
2022/11/26 00:47:08;;;;;;;23.05;12.88;;;;;;;-1.96;77.20;93815.53;5085102;28;20042;-34
2022/11/26 00:49:34;;;;;;;22.77;11.85;;;;;;;-1.99;77.50;93802.94;5080340;28;20033;-34
2022/11/26 00:51:59;;;;;;;18.35;10.88;;;;;;;-2.04;77.97;93814.38;5082814;28;20416;-35
2022/11/26 00:54:25;;;;;;;18.13;11.05;;;;;;;-2.01;77.72;93819.59;5082496;28;20071;-35
2022/11/26 00:56:50;;;;;;;20.40;11.73;;;;;;;-2.01;77.90;93826.97;5090928;28;20024;-35
2022/11/26 00:59:19;;;;;;;15.95;10.68;;;;;;;-2.00;77.73;93833.88;5084274;28;20028;-34
2022/11/26 01:01:45;;;;;;;;;;;;;;;-1.95;77.76;93830.56;5085982;28;20035;-35
2022/11/26 01:04:10;;;;;;;35.60;16.23;;;;;;;-1.91;77.42;93826.47;5088899;28;19907;-34
2022/11/26 01:06:39;;;;;;;34.40;15.65;;;;;;;-1.95;77.20;93819.72;5090469;28;20485;-35
2022/11/26 01:09:05;;;;;;;29.15;15.68;;;;;;;-2.11;77.68;93815.44;5084009;28;20035;-35
2022/11/26 01:11:31;;;;;;;26.00;13.90;;;;;;;-2.09;77.83;93812.28;5090764;28;20545;-34
2022/11/26 01:13:58;;;;;;;27.50;14.68;;;;;;;-2.19;78.08;93816.25;5088706;28;20024;-35
2022/11/26 01:16:26;;;;;;;30.92;14.70;;;;;;;-2.26;78.37;93817.31;5088200;28;20023;-35
2022/11/26 01:18:54;;;;;;;23.65;12.82;;;;;;;-2.10;78.13;93818.91;5062174;28;20500;-34
2022/11/26 01:21:21;;;;;;;28.88;14.85;;;;;;;-2.27;78.20;93805.00;5088460;28;20028;-35
2022/11/26 01:23:46;;;;;;;42.60;23.15;;;;;;;-2.20;79.14;93826.31;5088528;28;20074;-34
2022/11/26 01:26:17;;;;;;;34.10;18.45;;;;;;;-2.12;78.59;93824.75;5083616;28;20103;-34
2022/11/26 01:28:43;;;;;;;36.55;19.35;;;;;;;-2.04;78.18;93830.59;5087968;28;20031;-34
2022/11/26 01:31:18;;;;;;;37.58;18.65;;;;;;;-1.98;78.56;93831.47;5075135;28;20034;-34
2022/11/26 01:33:44;;;;;;;35.78;22.05;;;;;;;-1.99;77.82;93846.94;5091118;28;20031;-34
2022/11/26 01:36:32;;;;;;;34.88;19.02;;;;;;;-2.24;77.84;93831.13;5090168;28;20028;-35
2022/11/26 01:39:01;;;;;;;25.35;14.45;;;;;;;-2.20;77.92;93841.78;5086623;28;20024;-35
2022/11/26 01:41:40;;;;;;;18.70;10.55;;;;;;;-2.40;77.50;93851.16;5090489;28;20055;-35
2022/11/26 01:44:06;;;;;;;14.27;8.80;;;;;;;-2.60;78.27;93853.63;5088535;28;20028;-35
2022/11/26 01:46:33;;;;;;;13.48;8.07;;;;;;;-2.60;78.37;93856.31;5067110;28;20144;-35
2022/11/26 01:49:34;;;;;;;14.07;7.95;;;;;;;-2.70;78.75;93870.31;5060941;28;20604;-35
2022/11/26 01:52:08;;;;;;;16.30;9.32;;;;;;;-2.60;79.09;93858.31;4986623;28;20038;-36
2022/11/26 01:54:35;;;;;;;11.18;7.75;;;;;;;-2.53;79.28;93863.38;5071823;28;20111;-35
2022/11/26 01:57:08;;;;;;;16.65;10.05;;;;;;;-2.49;79.61;93870.13;5066894;28;20037;-35
2022/11/26 01:59:36;;;;;;;30.33;15.10;;;;;;;-2.59;79.69;93867.88;5086563;28;20027;-35
2022/11/26 02:02:02;;;;;;;33.50;17.55;;;;;;;-2.52;79.47;93862.94;5066116;28;20023;-35
2022/11/26 02:04:38;;;;;;;33.78;17.58;;;;;;;-2.37;78.60;93863.78;5070423;28;20051;-35
2022/11/26 02:07:04;;;;;;;35.33;17.92;;;;;;;-2.38;78.59;93873.09;5070974;28;20031;-35
2022/11/26 02:09:29;;;;;;;32.25;17.40;;;;;;;-2.36;78.14;93854.47;5081764;28;20036;-35
2022/11/26 02:11:55;;;;;;;36.10;19.15;;;;;;;-2.41;77.89;93860.50;5081298;28;20024;-35
2022/11/26 02:14:41;;;;;;;30.23;17.25;;;;;;;-2.63;78.69;93867.31;5087934;28;20024;-35
2022/11/26 02:17:06;;;;;;;34.38;17.20;;;;;;;-2.50;79.08;93870.56;5071391;28;20032;-35
2022/11/26 02:20:03;;;;;;;35.42;14.95;;;;;;;-2.52;78.95;93876.44;5085693;28;20032;-34
2022/11/26 02:23:11;;;;;;;25.85;15.35;;;;;;;-2.67;79.77;93875.56;5082203;28;20575;-34
2022/11/26 02:25:57;;;;;;;35.05;17.10;;;;;;;-2.57;79.31;93870.88;5081330;28;20039;-34
2022/11/26 02:28:53;;;;;;;29.98;13.88;;;;;;;-2.64;79.81;93882.03;5067829;28;20040;-34
2022/11/26 02:31:35;;;;;;;27.20;16.05;;;;;;;-2.56;79.29;93888.63;5076826;28;20025;-34
2022/11/26 02:34:10;;;;;;;25.25;13.73;;;;;;;-2.64;79.12;93884.75;5071317;28;20034;-34
2022/11/26 02:36:48;;;;;;;20.65;12.13;;;;;;;-2.93;80.15;93879.81;5064798;28;20060;-34
2022/11/26 02:39:20;;;;;;;16.45;9.63;;;;;;;-3.02;80.81;93882.53;5067029;28;20527;-34
2022/11/26 02:41:49;;;;;;;17.70;9.32;;;;;;;-3.02;81.20;93874.41;5088988;28;20031;-34
2022/11/26 02:44:17;;;;;;;18.73;10.23;;;;;;;-3.10;81.26;93863.16;5095624;28;20027;-34
2022/11/26 02:46:45;;;;;;;23.50;10.30;;;;;;;-2.96;81.23;93877.25;5065170;28;20047;-34
2022/11/26 02:49:12;;;;;;;18.00;11.15;;;;;;;-2.95;80.59;93876.81;5061645;28;20032;-34
2022/11/26 02:51:37;;;;;;;14.70;9.73;;;;;;;-2.89;79.60;93880.41;5088820;28;20078;-34
2022/11/26 02:54:04;;;;;;;15.45;8.85;;;;;;;-3.03;80.56;93866.78;5081449;28;20501;-34
2022/11/26 02:56:30;;;;;;;16.65;9.23;;;;;;;-2.92;80.88;93877.88;5062065;28;20039;-34
2022/11/26 02:58:56;;;;;;;16.15;10.05;;;;;;;-2.78;80.72;93886.09;5066579;28;20031;-34
2022/11/26 03:01:58;;;;;;;18.95;10.57;;;;;;;-2.79;80.22;93887.28;5086352;28;20610;-34
2022/11/26 03:04:26;;;;;;;14.85;9.27;;;;;;;-2.68;79.42;93887.59;5092927;28;20036;-34
2022/11/26 03:06:53;;;;;;;18.65;10.70;;;;;;;-2.74;79.37;93881.28;5064901;28;20032;-34
2022/11/26 03:09:21;;;;;;;26.60;13.65;;;;;;;-2.84;79.12;93879.81;5067563;28;20039;-34
2022/11/26 03:11:46;;;;;;;28.95;15.23;;;;;;;-2.89;78.86;93855.34;5085002;28;20171;-34
2022/11/26 03:14:12;;;;;;;28.23;15.43;;;;;;;-2.68;78.57;93884.13;5089984;28;20171;-34
2022/11/26 03:16:37;;;;;;;20.98;12.32;;;;;;;-2.89;78.35;93883.09;5089194;28;20082;-34
2022/11/26 03:19:03;;;;;;;17.98;11.98;;;;;;;-2.73;78.79;93890.16;5082530;28;20036;-34
2022/11/26 03:21:30;;;;;;;19.00;11.65;;;;;;;-2.72;78.82;93894.34;5084690;28;20512;-34
2022/11/26 03:23:56;;;;;;;19.67;12.75;;;;;;;-2.71;79.20;93899.31;5088662;28;20416;-34
2022/11/26 03:26:21;;;;;;;22.58;11.70;;;;;;;-2.68;79.67;93901.09;5084514;28;20020;-34
2022/11/26 03:28:47;;;;;;;14.10;9.68;;;;;;;-2.60;79.39;93904.97;5090539;28;20483;-34
2022/11/26 03:31:12;;;;;;;18.90;9.85;;;;;;;-2.58;79.19;93905.31;5065501;28;20047;-34
2022/11/26 03:33:38;;;;;;;16.48;9.10;;;;;;;-2.90;80.05;93903.22;5088171;28;20028;-34
2022/11/26 03:36:03;;;;;;;22.52;9.73;;;;;;;-3.01;80.79;93913.72;5088611;28;20032;-35
2022/11/26 03:38:29;;;;;;;13.02;8.80;;;;;;;-2.96;80.97;93909.66;5093421;28;20476;-34
2022/11/26 03:40:59;;;;;;;14.43;8.48;;;;;;;-3.01;81.14;93918.38;5087868;28;20027;-35
2022/11/26 03:43:25;;;;;;;10.68;7.05;;;;;;;-2.97;81.38;93922.44;5089285;28;20024;-34
2022/11/26 03:45:50;;;;;;;10.45;6.85;;;;;;;-2.83;80.97;93921.81;5092032;28;20119;-35
2022/11/26 03:48:16;;;;;;;15.88;7.68;;;;;;;-3.00;80.71;93931.44;5084776;28;20043;-35
2022/11/26 03:50:41;;;;;;;13.00;8.43;;;;;;;-3.02;81.18;93936.53;5088908;28;20048;-34
2022/11/26 03:53:07;;;;;;;15.82;8.88;;;;;;;-2.90;79.98;93943.00;5086263;28;20032;-35
2022/11/26 03:55:33;;;;;;;16.20;8.85;;;;;;;-2.92;79.79;93940.00;5086768;28;20032;-34
2022/11/26 03:57:58;;;;;;;15.05;9.50;;;;;;;-3.09;79.64;93934.88;5082557;28;20031;-34
2022/11/26 04:00:24;;;;;;;18.63;11.00;;;;;;;-2.99;79.73;93959.97;5090341;28;20033;-35
2022/11/26 04:02:49;;;;;;;19.88;11.48;;;;;;;-2.97;79.65;93962.97;5087157;28;20435;-35
2022/11/26 04:05:14;;;;;;;21.20;11.07;;;;;;;-2.97;79.17;93957.56;5089562;28;20024;-35
2022/11/26 04:07:40;;;;;;;23.95;12.00;;;;;;;-2.92;78.66;93969.72;5083871;28;20020;-34
2022/11/26 04:10:07;;;;;;;21.85;11.45;;;;;;;-2.94;78.13;93972.09;5085938;28;20051;-34
2022/11/26 04:12:32;;;;;;;15.48;10.00;;;;;;;-2.82;77.19;93971.22;5082688;28;20054;-35
2022/11/26 04:14:58;;;;;;;15.35;10.77;;;;;;;-3.25;77.78;93962.16;5080567;28;20435;-35
2022/11/26 04:17:23;;;;;;;13.70;9.43;;;;;;;-3.37;78.25;93962.28;5079740;28;20036;-35
2022/11/26 04:19:48;;;;;;;17.60;9.05;;;;;;;-3.23;78.63;93973.25;5084011;28;20039;-35
2022/11/26 04:22:14;;;;;;;15.18;8.18;;;;;;;-3.21;78.64;93979.00;5092548;28;20016;-35
2022/11/26 04:24:39;;;;;;;25.27;14.98;;;;;;;-3.19;79.46;93983.94;5068538;28;20047;-35
2022/11/26 04:27:05;;;;;;;19.70;11.23;;;;;;;-3.12;79.58;93989.78;5083667;28;20485;-35
2022/11/26 04:29:30;;;;;;;16.35;9.23;;;;;;;-3.12;79.93;93987.09;5088783;28;20028;-34
2022/11/26 04:31:56;;;;;;;12.82;7.57;;;;;;;-3.02;80.38;93990.56;5087331;28;20024;-34
2022/11/26 04:34:21;;;;;;;10.25;7.03;;;;;;;-2.91;80.43;94003.63;5086017;28;20027;-34
2022/11/26 04:36:47;;;;;;;11.05;6.53;;;;;;;-2.78;80.48;94001.53;5083192;28;20032;-34
2022/11/26 04:39:12;;;;;;;10.02;5.82;;;;;;;-2.78;80.71;94009.66;5085920;28;20035;-34
2022/11/26 04:41:38;;;;;;;9.18;6.40;;;;;;;-2.87;81.17;93993.41;5088216;28;20139;-34
2022/11/26 04:44:03;;;;;;;9.10;6.78;;;;;;;-2.60;81.19;94015.06;5066297;28;20097;-34
2022/11/26 04:46:29;;;;;;;10.73;6.53;;;;;;;-2.66;81.10;93992.53;5079308;28;20044;-35
2022/11/26 04:48:54;;;;;;;9.30;6.32;;;;;;;-2.53;82.01;94012.78;5083236;28;20034;-34
2022/11/26 04:51:20;;;;;;;11.13;6.70;;;;;;;-2.58;82.51;94015.38;5082353;28;20022;-35
2022/11/26 04:53:45;;;;;;;14.52;7.45;;;;;;;-2.48;82.61;94014.91;5090199;28;20027;-35
2022/11/26 04:56:11;;;;;;;16.02;7.88;;;;;;;-2.37;82.36;94017.16;5083179;28;20032;-35
2022/11/26 04:58:36;;;;;;;14.27;10.30;;;;;;;-2.29;82.02;94023.75;5079927;28;20105;-35
2022/11/26 05:01:02;;;;;;;18.38;11.63;;;;;;;-2.17;82.21;94027.50;5085149;28;20032;-35
2022/11/26 05:03:27;;;;;;;23.50;14.50;;;;;;;-2.53;82.18;93974.19;5059013;28;20024;-34
2022/11/26 05:05:53;;;;;;;20.85;10.57;;;;;;;-2.04;81.72;94028.84;5084183;28;20054;-34
2022/11/26 05:08:18;;;;;;;19.90;10.45;;;;;;;-2.02;80.87;94031.09;5082015;28;20028;-35
2022/11/26 05:10:44;;;;;;;13.32;9.38;;;;;;;-1.94;80.82;94035.72;5069344;28;20446;-35
2022/11/26 05:13:09;;;;;;;18.13;10.10;;;;;;;-1.86;81.00;94036.16;5084351;28;20027;-35
2022/11/26 05:15:35;;;;;;;16.65;11.73;;;;;;;-1.89;81.18;94018.88;5085574;28;20039;-35
2022/11/26 05:18:00;;;;;;;19.48;11.23;;;;;;;-1.66;81.10;94037.16;5082235;28;20099;-34
2022/11/26 05:20:26;;;;;;;23.20;14.85;;;;;;;-1.58;79.97;94035.63;5078455;28;20512;-34
2022/11/26 05:22:51;;;;;;;23.58;13.52;;;;;;;-1.50;79.11;94036.06;5079326;28;20024;-34
2022/11/26 05:25:17;;;;;;;28.27;15.05;;;;;;;-1.47;79.46;94031.69;5086380;28;20031;-34
2022/11/26 05:27:42;;;;;;;23.13;14.35;;;;;;;-1.41;79.39;94036.03;5077322;28;20434;-34
2022/11/26 05:30:08;;;;;;;19.13;12.13;;;;;;;-1.39;79.39;94038.28;5076488;28;20454;-34
2022/11/26 05:32:34;;;;;;;13.15;10.27;;;;;;;-1.31;79.48;94034.03;5084502;28;20056;-35
2022/11/26 05:34:59;;;;;;;25.85;14.40;;;;;;;-1.24;79.26;94039.13;5087837;28;20415;-35
2022/11/26 05:37:25;;;;;;;33.03;19.25;;;;;;;-1.20;79.03;94039.69;5079003;28;20404;-35
2022/11/26 05:39:50;;;;;;;30.88;18.15;;;;;;;-1.08;78.49;94041.44;5085063;28;20032;-34
2022/11/26 05:42:16;;;;;;;36.05;19.38;;;;;;;-1.00;78.03;94048.78;5084816;28;20027;-34
2022/11/26 05:44:41;;;;;;;40.33;22.42;;;;;;;-1.00;78.54;94048.78;5088717;28;20035;-34
2022/11/26 05:47:07;;;;;;;35.08;19.27;;;;;;;-0.97;78.82;94055.22;5085899;28;20419;-35
2022/11/26 05:49:32;;;;;;;21.88;15.75;;;;;;;-1.00;78.96;94048.78;5086505;28;20442;-35
2022/11/26 05:51:58;;;;;;;35.10;21.33;;;;;;;-1.05;79.30;94040.53;5074355;28;20419;-35
2022/11/26 05:54:23;;;;;;;33.60;20.38;;;;;;;-0.87;79.24;94052.00;5087451;28;20020;-34
2022/11/26 05:56:49;;;;;;;49.15;24.17;;;;;;;-1.00;79.83;94059.63;5070681;28;20063;-34
2022/11/26 05:59:14;;;;;;;26.23;15.07;;;;;;;-1.29;81.21;94051.31;5093107;28;20051;-36
2022/11/26 06:01:40;;;;;;;24.55;14.48;;;;;;;-1.30;81.74;94049.81;5089190;28;20476;-35
2022/11/26 06:04:05;;;;;;;39.35;22.67;;;;;;;-1.10;81.79;94063.56;5090005;28;20035;-34
2022/11/26 06:06:31;;;;;;;50.22;23.40;;;;;;;-0.93;81.78;94069.34;5085578;28;20549;-34
2022/11/26 06:08:56;;;;;;;118.80;43.30;;;;;;;-0.85;81.64;94070.53;5078071;28;20561;-34
2022/11/26 06:11:22;;;;;;;52.08;23.45;;;;;;;-0.75;81.32;94069.25;5088506;28;20019;-35
2022/11/26 06:13:47;;;;;;;22.58;12.13;;;;;;;-0.73;81.13;94072.25;5087215;28;20028;-35
2022/11/26 06:16:13;;;;;;;18.42;11.30;;;;;;;-0.70;81.14;94074.06;5078641;28;20028;-34
2022/11/26 06:18:38;;;;;;;14.65;9.15;;;;;;;-0.70;81.50;94081.44;5064035;28;20028;-35
2022/11/26 06:21:05;;;;;;;17.80;10.52;;;;;;;-0.82;82.67;94080.44;5080247;28;20070;-35
2022/11/26 06:23:32;;;;;;;19.52;11.88;;;;;;;-0.66;82.63;94079.31;5079761;28;20496;-35
2022/11/26 06:25:58;;;;;;;14.02;9.50;;;;;;;-0.53;82.53;94079.81;5082724;28;20016;-35
2022/11/26 06:28:23;;;;;;;18.70;10.05;;;;;;;-0.46;82.65;94082.97;5083394;28;20039;-34
2022/11/26 06:30:49;;;;;;;27.83;12.43;;;;;;;-0.47;82.56;94059.75;5083941;28;20035;-35
2022/11/26 06:33:15;;;;;;;30.98;13.80;;;;;;;-0.35;83.12;94068.88;5088510;28;20020;-35
2022/11/26 06:35:40;;;;;;;25.63;11.85;;;;;;;-0.21;83.57;94081.72;5080976;28;20025;-35
2022/11/26 06:38:06;;;;;;;18.63;9.27;;;;;;;-0.13;83.40;94078.16;5081580;28;20024;-35
2022/11/26 06:40:31;;;;;;;13.13;8.07;;;;;;;-0.10;82.95;94090.06;5081868;28;20050;-34
2022/11/26 06:42:57;;;;;;;17.52;9.55;;;;;;;0.00;83.46;94081.38;5086551;28;20032;-34
2022/11/26 06:45:22;;;;;;;17.23;8.70;;;;;;;0.06;82.50;94086.94;5084642;28;20068;-34
2022/11/26 06:47:50;;;;;;;15.43;8.55;;;;;;;0.04;82.23;94085.88;5082516;28;20538;-35
2022/11/26 06:50:18;;;;;;;31.10;11.80;;;;;;;0.05;82.51;94068.38;5081733;28;20024;-34
2022/11/26 06:52:44;;;;;;;45.17;20.35;;;;;;;0.28;81.92;94086.59;5085753;28;20037;-35
2022/11/26 06:55:09;;;;;;;53.28;27.17;;;;;;;0.29;82.39;94077.97;5077791;28;20031;-34
2022/11/26 06:57:35;;;;;;;45.33;15.90;;;;;;;0.49;82.15;94090.91;5080913;28;20031;-34
2022/11/26 07:00:00;;;;;;;37.40;16.45;;;;;;;0.51;82.05;94091.19;5083022;28;20026;-34
2022/11/26 07:02:26;;;;;;;29.27;13.85;;;;;;;0.58;82.64;94082.66;5080808;28;20021;-35
2022/11/26 07:04:52;;;;;;;34.63;14.98;;;;;;;0.71;81.96;94085.84;5087492;28;20027;-34
2022/11/26 07:07:18;;;;;;;51.17;23.85;;;;;;;0.74;81.76;94085.63;5082654;28;20020;-35
2022/11/26 07:09:43;;;;;;;51.35;19.30;;;;;;;0.76;81.94;94096.03;5076922;28;20484;-35
2022/11/26 07:12:09;;;;;;;63.25;18.02;;;;;;;0.80;82.86;94093.91;5083455;28;20028;-35
2022/11/26 07:14:35;;;;;;;40.70;15.18;;;;;;;0.90;82.67;94098.00;5083399;28;20028;-34
2022/11/26 07:17:00;;;;;;;43.05;20.92;;;;;;;0.92;82.84;94087.41;5083876;28;20047;-34
2022/11/26 07:19:26;;;;;;;39.67;14.02;;;;;;;0.89;83.40;94093.03;5078910;28;20518;-35
2022/11/26 07:21:51;;;;;;;63.45;13.15;;;;;;;0.95;83.17;94094.63;5081860;28;20107;-35
2022/11/26 07:24:17;;;;;;;34.70;12.23;;;;;;;1.02;82.96;94096.94;5079794;28;20492;-34
2022/11/26 07:26:42;;;;;;;47.92;21.13;;;;;;;1.08;83.13;94100.53;5084624;28;20031;-34
2022/11/26 07:29:08;;;;;;;44.05;17.83;;;;;;;1.06;83.79;94099.47;5074046;28;20086;-35
2022/11/26 07:31:35;;;;;;;35.78;14.52;;;;;;;1.15;83.20;94104.81;5084984;28;20019;-34
2022/11/26 07:34:00;;;;;;;34.60;11.63;;;;;;;1.19;83.52;94097.94;5080106;28;20130;-34
2022/11/26 07:36:27;;;;;;;20.17;9.52;;;;;;;1.23;83.60;94098.53;5071704;28;20672;-34
2022/11/26 07:38:56;;;;;;;31.25;12.55;;;;;;;1.30;83.58;94098.09;5084374;28;20020;-34
2022/11/26 07:41:23;;;;;;;23.80;12.32;;;;;;;1.35;83.18;94091.25;5085870;28;20020;-34
2022/11/26 07:43:48;;;;;;;27.83;10.88;;;;;;;1.45;83.51;94095.38;5084446;28;20039;-35
2022/11/26 07:46:17;;;;;;;16.65;9.02;;;;;;;1.47;83.07;94090.19;5084823;28;20028;-35
2022/11/26 07:48:42;;;;;;;20.47;9.37;;;;;;;1.52;82.78;94095.69;5084293;28;20100;-35
2022/11/26 07:51:21;;;;;;;25.88;14.27;;;;;;;1.58;83.27;94101.22;5061208;28;20110;-34
2022/11/26 07:53:48;;;;;;;31.63;14.88;;;;;;;1.70;83.06;94107.53;5090734;28;20084;-34
2022/11/26 07:56:14;;;;;;;56.50;24.23;;;;;;;1.72;83.50;94111.28;5090201;28;20114;-34
2022/11/26 07:58:39;;;;;;;87.13;38.45;;;;;;;1.74;83.11;94102.66;5083201;28;20642;-34
2022/11/26 08:01:15;;;;;;;93.22;38.28;;;;;;;1.85;82.94;94105.50;5085313;28;20129;-35
2022/11/26 08:03:43;;;;;;;62.90;24.77;;;;;;;1.68;82.99;94067.19;5088204;28;20466;-34
2022/11/26 08:06:46;;;;;;;43.33;20.77;;;;;;;2.00;82.61;94109.66;4830293;27;8027810;-35
2022/11/26 08:09:11;;;;;;;74.20;28.60;;;;;;;2.02;82.11;94107.22;5098294;28;20034;-34
2022/11/26 08:11:37;;;;;;;45.22;26.83;;;;;;;2.07;82.04;94113.94;5100389;28;20131;-34
2022/11/26 08:14:05;;;;;;;56.30;26.42;;;;;;;2.16;81.93;94111.84;5099286;28;20032;-34
2022/11/26 08:16:31;;;;;;;20.02;11.10;;;;;;;2.08;81.63;94120.91;5099814;28;21306;-34
2022/11/26 08:18:59;;;;;;;23.25;10.48;;;;;;;2.08;81.35;94129.81;5095865;28;20088;-34
2022/11/26 08:21:25;;;;;;;29.87;15.40;;;;;;;2.14;81.26;94127.16;5094643;28;20028;-34
2022/11/26 08:23:52;;;;;;;33.10;16.50;;;;;;;2.18;81.71;94128.47;5093839;28;21091;-34
2022/11/26 08:26:19;;;;;;;30.30;15.70;;;;;;;2.27;81.91;94130.28;5093211;28;20497;-34
2022/11/26 08:28:46;;;;;;;24.60;11.55;;;;;;;2.28;81.66;94134.50;5093928;28;20043;-34
2022/11/26 08:31:13;;;;;;;26.73;12.93;;;;;;;2.27;81.85;94143.91;5094012;28;20030;-34
2022/11/26 08:33:38;;;;;;;26.58;13.88;;;;;;;2.30;81.77;94137.47;5094065;28;20081;-34
2022/11/26 08:36:05;;;;;;;24.83;14.30;;;;;;;2.40;81.31;94154.44;5094051;28;20100;-34
2022/11/26 08:38:30;;;;;;;22.90;12.10;;;;;;;2.45;81.06;94153.78;5092744;28;20028;-34
2022/11/26 08:41:07;;;;;;;18.08;9.60;;;;;;;2.49;80.41;94137.94;5094508;28;20080;-34
2022/11/26 08:43:34;;;;;;;21.40;10.70;;;;;;;2.44;80.41;94144.84;5095870;28;20028;-34
2022/11/26 08:45:59;;;;;;;31.92;16.45;;;;;;;2.43;80.51;94146.06;5094175;28;20065;-34
2022/11/26 08:48:26;;;;;;;29.85;16.60;;;;;;;2.41;81.07;94147.75;5093340;28;20066;-34
2022/11/26 08:51:03;;;;;;;29.90;14.48;;;;;;;2.43;80.79;94146.06;5072035;28;20495;-34
2022/11/26 08:53:30;;;;;;;21.35;10.90;;;;;;;2.44;80.21;94141.34;5092760;28;20055;-34
2022/11/26 08:56:00;;;;;;;24.52;12.20;;;;;;;2.45;80.34;94146.31;5092257;28;20689;-34
2022/11/26 08:58:26;;;;;;;24.80;13.60;;;;;;;2.26;80.89;94115.16;5093100;28;20030;-34
2022/11/26 09:00:51;;;;;;;19.27;10.52;;;;;;;2.51;81.07;94135.50;5095423;28;20015;-34
2022/11/26 09:03:17;;;;;;;16.20;10.20;;;;;;;2.59;80.83;94142.78;5094215;28;20084;-34
2022/11/26 09:05:42;;;;;;;21.50;11.20;;;;;;;2.71;80.08;94143.59;5092984;28;20040;-34
2022/11/26 09:08:08;;;;;;;28.70;15.35;;;;;;;2.77;80.05;94141.72;5098517;28;20034;-34
2022/11/26 09:10:33;;;;;;;13.90;9.18;;;;;;;2.77;78.77;94136.97;5095301;28;20042;-35
2022/11/26 09:12:59;;;;;;;17.48;9.48;;;;;;;2.79;78.81;94139.25;5091760;28;20499;-34
2022/11/26 09:15:24;;;;;;;23.17;12.65;;;;;;;2.85;78.99;94132.63;5101905;28;20095;-35
2022/11/26 09:17:50;;;;;;;20.98;12.82;;;;;;;2.99;79.33;94130.97;5081261;28;20032;-35
2022/11/26 09:20:15;;;;;;;27.08;14.50;;;;;;;3.12;78.82;94133.34;5085840;28;20496;-35
2022/11/26 09:22:41;;;;;;;29.40;17.95;;;;;;;2.99;78.44;94126.28;5080041;28;21361;-35
2022/11/26 09:25:07;;;;;;;19.25;11.82;;;;;;;2.98;78.52;94132.22;5075790;28;20024;-35
2022/11/26 09:27:32;;;;;;;17.98;10.65;;;;;;;2.89;78.60;94135.13;5059193;28;20177;-35
2022/11/26 09:29:58;;;;;;;15.57;9.00;;;;;;;2.93;78.18;94135.66;5081389;28;20035;-35
2022/11/26 09:32:23;;;;;;;17.60;10.60;;;;;;;3.06;78.21;94136.00;5080281;28;20024;-35
2022/11/26 09:34:49;;;;;;;18.58;11.50;;;;;;;3.21;78.37;94133.91;5078678;28;20500;-35
2022/11/26 09:37:14;;;;;;;35.33;18.75;;;;;;;3.33;77.86;94132.75;5076846;28;20035;-35
2022/11/26 09:39:40;;;;;;;28.17;16.50;;;;;;;3.46;77.08;94140.53;5076152;28;20607;-35
2022/11/26 09:42:27;;;;;;;48.72;25.90;;;;;;;3.59;77.22;94132.69;5077588;28;20177;-35
2022/11/26 09:45:10;;;;;;;23.77;13.60;;;;;;;3.68;76.01;94135.22;5065851;28;20047;-35
2022/11/26 09:47:41;;;;;;;33.17;20.17;;;;;;;3.69;76.21;94131.25;5063390;28;20052;-35
2022/11/26 09:50:10;;;;;;;16.63;9.85;;;;;;;3.71;75.36;94128.78;5078718;28;20028;-35
2022/11/26 09:52:50;;;;;;;20.95;11.35;;;;;;;3.64;75.62;94124.50;5082028;28;20039;-35
2022/11/26 09:55:46;;;;;;;13.45;8.73;;;;;;;3.62;75.56;94124.25;5085409;28;20408;-35
2022/11/26 09:58:41;;;;;;;20.77;11.90;;;;;;;3.61;75.39;94120.03;5047388;28;20055;-35
2022/11/26 10:01:14;;;;;;;24.35;14.30;;;;;;;3.54;75.49;94115.03;5077039;28;20036;-34
2022/11/26 10:03:41;;;;;;;22.70;11.95;;;;;;;3.54;76.12;94123.22;5060846;28;20069;-35
2022/11/26 10:06:06;;;;;;;29.23;17.85;;;;;;;3.51;75.95;94120.72;5079637;28;20048;-35
2022/11/26 10:09:01;;;;;;;19.80;13.48;;;;;;;3.69;76.82;94114.88;5081065;28;20024;-35
2022/11/26 10:11:54;;;;;;;20.30;12.88;;;;;;;3.94;76.25;94119.47;5080288;28;20031;-35
2022/11/26 10:14:38;;;;;;;19.98;11.65;;;;;;;4.01;74.96;94119.00;5082353;28;20066;-35
2022/11/26 10:17:16;;;;;;;16.50;10.80;;;;;;;3.94;74.74;94110.53;5084001;28;20436;-35
2022/11/26 10:20:06;;;;;;;18.77;11.77;;;;;;;4.08;73.38;94110.34;5077493;28;20093;-35
2022/11/26 10:22:42;;;;;;;13.80;10.18;;;;;;;4.07;73.70;94103.38;5074911;28;20476;-35
2022/11/26 10:25:18;;;;;;;14.15;8.80;;;;;;;4.17;73.25;94101.94;5076626;28;20028;-35
2022/11/26 10:27:44;;;;;;;11.25;8.18;;;;;;;4.26;72.46;94098.25;5079603;28;20027;-35
2022/11/26 10:30:35;;;;;;;15.38;10.45;;;;;;;4.49;71.88;94099.78;5078140;28;20032;-35
2022/11/26 10:33:04;;;;;;;15.18;10.18;;;;;;;4.60;71.90;94103.31;5056017;28;20081;-35
2022/11/26 10:35:30;;;;;;;19.38;12.00;;;;;;;4.80;71.13;94098.84;5076614;28;20024;-35
2022/11/26 10:37:56;;;;;;;14.32;9.15;;;;;;;4.82;70.22;94090.91;5060479;28;20025;-35
2022/11/26 10:40:24;;;;;;;17.60;10.32;;;;;;;4.68;68.71;94091.88;5079294;28;20031;-35
2022/11/26 10:43:04;;;;;;;22.17;13.43;;;;;;;4.66;70.40;94088.91;5074739;28;20028;-35
2022/11/26 10:45:43;;;;;;;14.00;9.32;;;;;;;4.56;71.47;94091.09;5076690;28;20220;-35
2022/11/26 10:48:23;;;;;;;12.07;8.45;;;;;;;4.82;71.81;94093.63;5074852;28;20038;-35
2022/11/26 10:51:00;;;;;;;11.43;7.97;;;;;;;5.12;69.84;94091.91;5073943;28;20329;-35
2022/11/26 10:53:28;;;;;;;12.05;8.43;;;;;;;5.07;68.25;94093.41;5080091;28;20028;-34
2022/11/26 10:56:00;;;;;;;11.38;8.40;;;;;;;4.70;69.54;94097.59;5077349;28;20410;-35
2022/11/26 10:58:38;;;;;;;10.23;7.28;;;;;;;4.68;69.94;94097.34;5057968;28;20046;-34
2022/11/26 11:01:04;;;;;;;40.75;16.65;;;;;;;4.56;70.16;94094.59;5072287;28;20020;-34
2022/11/26 11:03:34;;;;;;;47.65;21.38;;;;;;;4.44;70.36;94095.78;5075133;28;20031;-34
2022/11/26 11:06:17;;;;;;;;;;;;;;;4.49;69.94;94089.59;5057828;28;20400;-34
2022/11/26 11:08:44;;;;;;;31.88;15.20;;;;;;;4.33;70.60;94089.56;5076069;28;20407;-34
2022/11/26 11:11:25;;;;;;;15.38;9.05;;;;;;;4.97;70.03;94086.69;5056270;28;20035;-34
2022/11/26 11:13:52;;;;;;;36.80;13.23;;;;;;;5.71;66.30;94089.63;5076613;28;20054;-34
2022/11/26 11:16:30;;;;;;;42.83;17.27;;;;;;;6.42;63.37;94093.38;5080657;28;20043;-34
2022/11/26 11:18:58;;;;;;;11.38;7.95;;;;;;;6.98;61.52;94090.28;5082985;28;20062;-34
2022/11/26 11:21:33;;;;;;;17.73;11.02;;;;;;;7.26;60.87;94088.81;5082215;28;20102;-35
2022/11/26 11:24:15;;;;;;;9.85;6.97;;;;;;;7.15;60.77;94077.94;5069212;28;20027;-34
2022/11/26 11:26:46;;;;;;;9.18;6.80;;;;;;;7.52;58.76;94078.13;5080220;28;20111;-34
2022/11/26 11:29:44;;;;;;;8.40;5.72;;;;;;;7.79;57.59;94073.63;5051955;28;20028;-34
2022/11/26 11:32:39;;;;;;;9.38;7.05;;;;;;;8.25;58.20;94069.84;5029371;28;20039;-34